Time;durP1;ratioP1;P1;durP2;ratioP2;P2;SDS_P1;SDS_P2;PMS_P1;PMS_P2;Temp;Humidity;BMP_temperature;BMP_pressure;BME280_temperature;BME280_humidity;BME280_pressure;Samples;Min_cycle;Max_cycle;Signal;HPM_P1;HPM_P2
2022/01/27 14:38:52;;;;;;;11.15;4.40;;;8.60;99.90;;;;;;5151105;22;20064;-92
2022/01/27 14:41:20;;;;;;;10.85;4.55;;;8.60;99.90;;;;;;5064487;28;20033;-88
2022/01/27 14:43:47;;;;;;;11.80;4.65;;;8.50;99.90;;;;;;5057706;28;20048;-88
2022/01/27 14:46:21;;;;;;;11.60;4.28;;;8.50;99.90;;;;;;5045615;28;20018;-89
2022/01/27 14:48:57;;;;;;;16.27;4.88;;;8.50;99.90;;;;;;5056876;28;20032;-89
2022/01/27 14:51:26;;;;;;;10.75;4.20;;;8.50;99.90;;;;;;5076911;28;20540;-88
2022/01/27 14:53:52;;;;;;;11.18;4.70;;;8.50;99.90;;;;;;5030750;28;20037;-87
2022/01/27 14:56:23;;;;;;;13.02;4.53;;;8.40;99.90;;;;;;5018044;28;20044;-88
2022/01/27 14:58:51;;;;;;;13.90;4.43;;;8.40;99.90;;;;;;5064647;28;20028;-89
2022/01/27 15:01:18;;;;;;;12.48;4.60;;;8.40;99.90;;;;;;5068151;28;20076;-93
2022/01/27 15:03:44;;;;;;;9.55;3.90;;;8.40;99.90;;;;;;5050758;28;20056;-91
2022/01/27 15:06:14;;;;;;;12.48;4.25;;;8.40;99.90;;;;;;5029541;28;20041;-92
2022/01/27 15:08:49;;;;;;;10.57;3.65;;;8.40;99.90;;;;;;5073680;28;20079;-93
2022/01/27 15:11:14;;;;;;;11.98;3.97;;;8.40;99.90;;;;;;5055461;28;20032;-91
2022/01/27 15:13:44;;;;;;;13.60;3.58;;;8.40;99.90;;;;;;5050837;28;20033;-90
2022/01/27 15:19:15;;;;;;;13.95;4.47;;;8.40;99.90;;;;;;5054674;28;20547;-90
2022/01/27 15:21:41;;;;;;;11.85;4.07;;;8.40;99.90;;;;;;5046975;28;20061;-89
2022/01/27 15:24:06;;;;;;;10.30;3.85;;;8.50;99.90;;;;;;5041637;28;20047;-89
2022/01/27 15:26:33;;;;;;;10.70;3.65;;;8.40;99.90;;;;;;5051071;28;20477;-89
2022/01/27 15:29:02;;;;;;;9.43;3.42;;;8.40;99.90;;;;;;5065586;23;20045;-91
2022/01/27 15:31:34;;;;;;;13.85;3.92;;;8.40;99.90;;;;;;5053103;28;20105;-90
2022/01/27 15:34:03;;;;;;;7.85;3.90;;;8.40;99.90;;;;;;5026494;28;20026;-91
2022/01/27 15:36:33;;;;;;;13.48;3.55;;;8.40;99.90;;;;;;5031938;28;20021;-93
2022/01/27 15:39:01;;;;;;;11.75;3.45;;;8.40;99.90;;;;;;5011249;28;20455;-92
2022/01/27 15:41:26;;;;;;;13.20;3.38;;;8.40;99.90;;;;;;5026513;28;20025;-91
2022/01/27 15:43:52;;;;;;;9.57;3.15;;;8.40;99.90;;;;;;5023802;28;20097;-91
2022/01/27 15:46:24;;;;;;;18.30;3.30;;;8.30;99.90;;;;;;5028876;28;20021;-88
2022/01/27 15:48:53;;;;;;;10.82;3.45;;;8.30;99.90;;;;;;5038206;28;20122;-90
2022/01/27 15:51:20;;;;;;;15.25;3.63;;;8.30;99.90;;;;;;5039260;28;20543;-91
2022/01/27 15:53:45;;;;;;;12.10;3.75;;;8.30;99.90;;;;;;5015775;28;20045;-90
2022/01/27 15:56:11;;;;;;;12.48;3.08;;;8.30;99.90;;;;;;5026872;28;20374;-88
2022/01/27 15:58:37;;;;;;;10.75;3.00;;;8.20;99.90;;;;;;5034325;28;20021;-89
2022/01/27 16:01:02;;;;;;;13.20;3.08;;;8.20;99.90;;;;;;5028191;28;20029;-89
2022/01/27 16:03:31;;;;;;;14.32;3.45;;;8.20;99.90;;;;;;5020847;28;20033;-92
2022/01/27 16:05:57;;;;;;;8.38;2.45;;;8.10;99.90;;;;;;5033976;28;20496;-90
2022/01/27 16:08:24;;;;;;;15.60;2.97;;;8.10;99.90;;;;;;5016290;28;20042;-92
2022/01/27 16:10:50;;;;;;;12.88;2.88;;;8.10;99.90;;;;;;5021429;28;20021;-92
2022/01/27 16:13:15;;;;;;;11.60;2.42;;;8.00;99.90;;;;;;5018152;28;20072;-89
2022/01/27 16:15:43;;;;;;;12.02;2.63;;;8.00;99.90;;;;;;5014081;28;20601;-92
2022/01/27 16:18:09;;;;;;;11.05;2.47;;;8.00;99.90;;;;;;5020054;28;20024;-92
2022/01/27 16:20:34;;;;;;;12.68;2.45;;;7.90;99.90;;;;;;5015700;28;20029;-88
2022/01/27 16:23:00;;;;;;;13.60;2.00;;;7.90;99.90;;;;;;5021615;28;20045;-90
2022/01/27 16:25:26;;;;;;;11.32;2.13;;;7.90;99.90;;;;;;5013008;28;20096;-90
2022/01/27 16:27:55;;;;;;;12.60;1.95;;;7.80;99.90;;;;;;5022842;28;20642;-91
2022/01/27 16:30:21;;;;;;;13.00;2.65;;;7.80;99.90;;;;;;5004967;28;20109;-90
2022/01/27 16:32:47;;;;;;;10.55;2.20;;;7.80;99.90;;;;;;5015791;28;20053;-91
2022/01/27 16:35:12;;;;;;;11.00;1.98;;;7.70;99.90;;;;;;4984028;28;20033;-92
2022/01/27 16:37:40;;;;;;;14.68;2.83;;;7.70;99.90;;;;;;5006303;28;20041;-92
2022/01/27 16:43:02;;;;;;;8.15;1.83;;;7.70;99.90;;;;;;5029113;28;20042;-91
2022/01/27 16:45:28;;;;;;;8.75;1.85;;;7.60;99.90;;;;;;5017121;28;20020;-88
2022/01/27 16:47:53;;;;;;;14.43;2.45;;;7.60;99.90;;;;;;5027756;28;20022;-91
2022/01/27 16:50:19;;;;;;;7.35;2.05;;;7.60;99.90;;;;;;5028457;28;20045;-87
2022/01/27 16:52:45;;;;;;;8.32;2.20;;;7.60;99.90;;;;;;5031561;28;20018;-91
2022/01/27 16:55:11;;;;;;;10.52;2.30;;;7.60;99.90;;;;;;5021134;28;20032;-90
2022/01/27 16:57:36;;;;;;;10.90;1.73;;;7.60;99.90;;;;;;5034784;28;20146;-91
2022/01/27 17:00:06;;;;;;;8.75;2.30;;;7.60;99.90;;;;;;5035875;28;20040;-87
2022/01/27 17:02:32;;;;;;;8.40;1.98;;;7.60;99.90;;;;;;5029643;28;20018;-88
2022/01/27 17:04:58;;;;;;;9.38;2.53;;;7.60;99.90;;;;;;5023129;28;20020;-87
2022/01/27 17:07:25;;;;;;;10.60;2.10;;;7.50;99.90;;;;;;5033182;28;20037;-90
2022/01/27 17:09:54;;;;;;;10.93;2.30;;;7.50;99.90;;;;;;5027559;28;20021;-86
2022/01/27 17:12:20;;;;;;;11.02;2.35;;;7.50;99.90;;;;;;5029291;28;20038;-85
2022/01/27 17:14:46;;;;;;;13.48;2.22;;;7.40;99.90;;;;;;5022433;28;20034;-90
2022/01/27 17:17:12;;;;;;;7.35;1.92;;;7.40;99.90;;;;;;5036349;28;20025;-91
2022/01/27 17:19:40;;;;;;;10.13;2.58;;;7.40;99.90;;;;;;5035347;28;20032;-90
2022/01/27 17:22:11;;;;;;;10.32;2.95;;;7.40;99.90;;;;;;5030787;28;20037;-87
2022/01/27 17:24:38;;;;;;;12.48;3.00;;;7.40;99.90;;;;;;4999650;28;20053;-85
2022/01/27 17:27:04;;;;;;;16.75;3.55;;;7.40;99.90;;;;;;5050837;28;20070;-84
2022/01/27 17:29:29;;;;;;;14.07;3.15;;;7.50;99.90;;;;;;5055128;28;20053;-87
2022/01/27 17:31:55;;;;;;;10.32;2.42;;;7.50;99.90;;;;;;5060996;28;20773;-89
2022/01/27 17:34:29;;;;;;;9.88;2.50;;;7.50;99.90;;;;;;5054230;28;20021;-86
2022/01/27 17:37:00;;;;;;;15.02;2.70;;;7.50;99.90;;;;;;5022730;28;20040;-85
2022/01/27 17:39:27;;;;;;;11.75;2.78;;;7.50;99.90;;;;;;5049349;28;20010;-86
2022/01/27 17:41:59;;;;;;;11.48;2.55;;;7.50;99.90;;;;;;5037997;28;20044;-87
2022/01/27 17:44:27;;;;;;;12.48;2.92;;;7.60;99.90;;;;;;5041619;28;20089;-90
2022/01/27 17:46:53;;;;;;;10.35;2.60;;;7.60;99.90;;;;;;5021488;28;20034;-91
2022/01/27 17:49:20;;;;;;;9.80;2.22;;;7.60;99.90;;;;;;5024543;28;20176;-90
2022/01/27 17:51:50;;;;;;;9.23;2.70;;;7.50;99.90;;;;;;5034569;28;20031;-89
2022/01/27 17:54:16;;;;;;;9.98;2.70;;;7.60;99.90;;;;;;5016223;28;20029;-88
2022/01/27 17:56:44;;;;;;;18.70;3.25;;;7.60;99.90;;;;;;5015201;28;20014;-86
2022/01/27 17:59:09;;;;;;;17.58;3.40;;;7.60;99.90;;;;;;5034586;28;20127;-89
2022/01/27 18:01:35;;;;;;;14.45;3.70;;;7.60;99.90;;;;;;5032173;28;20059;-87
2022/01/27 18:04:02;;;;;;;12.18;2.78;;;7.60;99.90;;;;;;5024421;28;20030;-90
2022/01/27 18:06:30;;;;;;;12.65;2.53;;;7.60;99.90;;;;;;5018613;28;20037;-87
2022/01/27 18:08:57;;;;;;;11.85;2.45;;;7.60;99.90;;;;;;5026734;28;20108;-87
2022/01/27 18:11:29;;;;;;;11.45;3.00;;;7.60;99.90;;;;;;5011428;28;20022;-87
2022/01/27 18:14:02;;;;;;;14.18;4.63;;;7.60;99.90;;;;;;5028379;28;20040;-88
2022/01/27 18:16:29;;;;;;;12.02;2.53;;;7.60;99.90;;;;;;5024470;28;20046;-87
2022/01/27 18:18:59;;;;;;;14.10;2.70;;;7.60;99.90;;;;;;5025710;28;20109;-88
2022/01/27 18:21:26;;;;;;;17.73;3.28;;;7.70;99.90;;;;;;5013445;28;20099;-90
2022/01/27 18:23:58;;;;;;;11.65;2.90;;;7.60;99.90;;;;;;5043892;28;20127;-86
2022/01/27 18:26:24;;;;;;;12.37;2.37;;;7.60;99.90;;;;;;5021659;28;20100;-91
2022/01/27 18:28:51;;;;;;;14.20;3.15;;;7.60;99.90;;;;;;5064378;28;21033;-88
2022/01/27 18:31:41;;;;;;;13.20;2.28;;;7.60;99.90;;;;;;5049415;28;20025;-88
2022/01/27 18:34:07;;;;;;;15.05;3.15;;;7.60;99.90;;;;;;5030245;28;20033;-88
2022/01/27 18:36:34;;;;;;;12.27;2.65;;;7.50;99.90;;;;;;5008899;28;20052;-87
2022/01/27 18:39:00;;;;;;;13.80;1.77;;;7.50;99.90;;;;;;5065821;28;20028;-90
2022/01/27 18:41:26;;;;;;;14.60;2.92;;;7.50;99.90;;;;;;5051993;28;20093;-89
2022/01/27 18:43:52;;;;;;;16.58;2.53;;;7.40;99.90;;;;;;5033876;28;20065;-90
2022/01/27 18:46:21;;;;;;;12.63;2.17;;;7.40;99.90;;;;;;5025051;28;20036;-91
2022/01/27 18:48:50;;;;;;;13.43;2.10;;;7.40;99.90;;;;;;5013403;28;20018;-88
2022/01/27 18:51:19;;;;;;;9.70;2.38;;;7.30;99.90;;;;;;5025377;28;20045;-90
2022/01/27 18:53:45;;;;;;;11.35;2.42;;;7.30;99.90;;;;;;5026638;28;20029;-90
2022/01/27 18:56:10;;;;;;;10.25;1.67;;;7.30;99.90;;;;;;5013816;28;20025;-90
2022/01/27 18:58:36;;;;;;;10.30;2.00;;;7.30;99.90;;;;;;5014969;28;20028;-91
2022/01/27 19:01:03;;;;;;;16.08;2.53;;;7.20;99.90;;;;;;5021059;28;20017;-91
2022/01/27 19:03:29;;;;;;;9.35;1.73;;;7.20;99.90;;;;;;5029219;28;20041;-88
2022/01/27 19:05:55;;;;;;;8.95;1.85;;;7.10;99.90;;;;;;5028289;28;20060;-90
2022/01/27 19:08:21;;;;;;;15.05;2.28;;;7.00;99.90;;;;;;5019239;28;20067;-91
2022/01/27 19:10:47;;;;;;;10.35;2.05;;;7.00;99.90;;;;;;5033984;28;20032;-90
2022/01/27 19:13:14;;;;;;;9.80;1.90;;;7.10;99.90;;;;;;5018646;28;20128;-92
2022/01/27 19:15:40;;;;;;;15.13;2.63;;;7.10;99.90;;;;;;5017281;28;20065;-89
2022/01/27 19:18:08;;;;;;;12.40;1.92;;;7.10;99.90;;;;;;5014159;28;20062;-91
2022/01/27 19:20:34;;;;;;;10.95;1.80;;;7.20;99.90;;;;;;5031074;28;20052;-90
2022/01/27 19:23:01;;;;;;;10.35;2.42;;;7.20;99.90;;;;;;4999100;28;20780;-91
2022/01/27 19:25:33;;;;;;;9.55;2.13;;;7.30;99.90;;;;;;5012765;28;20026;-95
2022/01/27 19:27:58;;;;;;;10.77;2.08;;;7.30;99.90;;;;;;5010357;28;20085;-89
2022/01/27 19:30:25;;;;;;;10.05;2.05;;;7.40;99.90;;;;;;4997553;28;20526;-91
2022/01/27 19:32:53;;;;;;;8.05;1.65;;;7.30;99.90;;;;;;5017338;28;20463;-90
2022/01/27 19:35:21;;;;;;;19.13;2.80;;;7.30;99.90;;;;;;5042375;28;20077;-88
2022/01/27 19:37:47;;;;;;;13.18;3.25;;;7.30;99.90;;;;;;5038389;28;20013;-88
2022/01/27 19:40:14;;;;;;;14.93;2.47;;;7.30;99.90;;;;;;5030936;28;20037;-91
2022/01/27 19:42:40;;;;;;;12.18;2.30;;;7.30;99.90;;;;;;5029478;28;20022;-88
2022/01/27 19:45:07;;;;;;;12.20;2.28;;;7.30;99.90;;;;;;5036293;28;20045;-90
2022/01/27 19:47:33;;;;;;;17.17;2.05;;;7.20;99.90;;;;;;5018459;28;20104;-90
2022/01/27 19:49:59;;;;;;;19.23;2.72;;;7.20;99.90;;;;;;5014823;28;20121;-89
2022/01/27 19:52:29;;;;;;;15.13;1.60;;;7.10;99.90;;;;;;5007609;28;20094;-88
2022/01/27 19:54:57;;;;;;;15.60;2.05;;;7.10;99.90;;;;;;5013932;28;20029;-90
2022/01/27 19:57:24;;;;;;;9.77;1.85;;;7.10;99.90;;;;;;5026889;28;20116;-90
2022/01/27 19:59:51;;;;;;;20.63;2.70;;;7.10;99.90;;;;;;5037475;28;20475;-91
2022/01/27 20:02:17;;;;;;;11.70;2.17;;;7.00;99.90;;;;;;5027483;28;20048;-89
2022/01/27 20:04:43;;;;;;;14.43;1.80;;;7.00;99.90;;;;;;5030281;28;20029;-89
2022/01/27 20:07:12;;;;;;;18.80;3.13;;;6.90;99.90;;;;;;5021675;28;20045;-86
2022/01/27 20:09:39;;;;;;;15.15;2.38;;;6.90;99.90;;;;;;5037970;28;20086;-89
2022/01/27 20:12:08;;;;;;;10.25;2.00;;;6.80;99.90;;;;;;5016767;28;20026;-90
2022/01/27 20:14:36;;;;;;;10.77;2.15;;;6.80;99.90;;;;;;5023339;28;20017;-89
2022/01/27 20:17:05;;;;;;;13.07;2.10;;;6.90;99.90;;;;;;5012999;28;20025;-90
2022/01/27 20:19:33;;;;;;;12.05;2.63;;;6.90;99.90;;;;;;5011665;28;20036;-86
2022/01/27 20:22:01;;;;;;;14.77;1.80;;;7.00;99.90;;;;;;5036333;28;20026;-90
2022/01/27 20:24:27;;;;;;;17.02;2.50;;;7.00;99.90;;;;;;5014430;28;20026;-90
2022/01/27 20:26:55;;;;;;;13.45;1.50;;;6.80;99.90;;;;;;5022477;28;20022;-91
2022/01/27 20:29:24;;;;;;;15.27;2.30;;;6.70;99.90;;;;;;5034831;28;20049;-88
2022/01/27 20:31:53;;;;;;;10.48;2.30;;;6.60;99.90;;;;;;5013647;28;20654;-89
2022/01/27 20:34:19;;;;;;;14.70;2.53;;;6.60;99.90;;;;;;5027460;28;20113;-90
2022/01/27 20:36:45;;;;;;;11.77;1.83;;;6.40;99.90;;;;;;5012147;28;20453;-89
2022/01/27 20:39:14;;;;;;;10.50;1.70;;;6.40;99.90;;;;;;5004472;28;20387;-90
2022/01/27 20:41:41;;;;;;;9.65;1.35;;;6.30;99.90;;;;;;5009173;28;20116;-89
2022/01/27 20:44:06;;;;;;;14.32;1.83;;;6.20;99.90;;;;;;5024118;28;20490;-89
2022/01/27 20:46:32;;;;;;;6.90;1.33;;;6.20;99.90;;;;;;5012619;28;20025;-87
2022/01/27 20:49:00;;;;;;;10.48;1.83;;;6.10;99.90;;;;;;5013767;28;20025;-88
2022/01/27 20:51:27;;;;;;;10.75;1.90;;;6.10;99.90;;;;;;5015257;28;20021;-86
2022/01/27 20:53:56;;;;;;;11.05;1.63;;;6.00;99.90;;;;;;5036808;28;20029;-91
2022/01/27 20:56:25;;;;;;;7.13;1.50;;;6.00;99.90;;;;;;5014941;28;20036;-90
2022/01/27 20:58:51;;;;;;;10.20;1.92;;;6.00;99.90;;;;;;5023298;28;20048;-87
2022/01/27 21:01:18;;;;;;;13.57;2.22;;;6.00;99.90;;;;;;5043546;28;20025;-87
2022/01/27 21:03:44;;;;;;;12.30;2.42;;;6.00;99.90;;;;;;5027394;28;20034;-88
2022/01/27 21:06:11;;;;;;;10.88;2.20;;;6.00;99.90;;;;;;5022687;28;20508;-86
2022/01/27 21:08:37;;;;;;;16.13;2.53;;;6.10;99.90;;;;;;5006400;28;20030;-91
2022/01/27 21:11:06;;;;;;;16.48;2.90;;;6.10;99.90;;;;;;5035500;28;20026;-91
2022/01/27 21:13:31;;;;;;;12.15;2.22;;;6.10;99.90;;;;;;5020542;28;20029;-90
2022/01/27 21:15:59;;;;;;;16.75;3.58;;;6.10;99.90;;;;;;5019235;28;20099;-87
2022/01/27 21:18:27;;;;;;;9.43;1.70;;;6.10;99.90;;;;;;5039279;28;20063;-90
2022/01/27 21:20:54;;;;;;;15.65;2.70;;;6.00;99.90;;;;;;5020297;28;20094;-88
2022/01/27 21:23:20;;;;;;;11.27;1.70;;;6.00;99.90;;;;;;5017366;28;20034;-88
2022/01/27 21:25:46;;;;;;;8.25;1.45;;;6.10;99.90;;;;;;5021655;28;20022;-87
2022/01/27 21:28:16;;;;;;;9.48;2.33;;;6.00;99.90;;;;;;5043445;28;20047;-88
2022/01/27 21:30:43;;;;;;;8.70;1.63;;;6.00;99.90;;;;;;5039304;28;20045;-88
2022/01/27 21:33:09;;;;;;;12.77;2.35;;;6.00;99.90;;;;;;5026198;28;20029;-91
2022/01/27 21:35:36;;;;;;;13.40;2.17;;;6.10;99.90;;;;;;5038806;28;20037;-86
2022/01/27 21:38:04;;;;;;;9.52;1.63;;;6.10;99.90;;;;;;5019315;28;20033;-89
2022/01/27 21:40:31;;;;;;;13.80;2.15;;;6.00;99.90;;;;;;5039007;28;20169;-90
2022/01/27 21:42:56;;;;;;;14.20;2.13;;;6.00;99.90;;;;;;5036887;28;20082;-89
2022/01/27 21:45:22;;;;;;;13.82;2.60;;;6.00;99.90;;;;;;5018557;28;20483;-88
2022/01/27 21:47:48;;;;;;;11.98;2.05;;;5.90;99.90;;;;;;5028902;28;20029;-90
2022/01/27 21:50:16;;;;;;;11.10;1.83;;;5.90;99.90;;;;;;5020460;28;20025;-90
2022/01/27 21:52:43;;;;;;;10.75;1.50;;;6.00;99.90;;;;;;5027770;28;20061;-92
2022/01/27 21:55:10;;;;;;;8.90;1.60;;;5.90;99.90;;;;;;5012214;28;20104;-89
2022/01/27 21:57:36;;;;;;;16.23;2.75;;;5.90;99.90;;;;;;5027647;28;20083;-88
2022/01/27 22:00:05;;;;;;;8.90;1.42;;;5.90;99.90;;;;;;5028848;28;20053;-89
2022/01/27 22:02:31;;;;;;;11.75;1.98;;;5.80;99.90;;;;;;5025956;28;20060;-87
2022/01/27 22:04:58;;;;;;;14.63;2.15;;;5.90;99.90;;;;;;5034808;28;20037;-90
2022/01/27 22:07:28;;;;;;;9.48;1.63;;;6.00;99.90;;;;;;5019181;28;20033;-89
2022/01/27 22:09:56;;;;;;;7.85;1.50;;;6.10;99.90;;;;;;5021126;28;20037;-89
2022/01/27 22:12:22;;;;;;;6.13;1.15;;;6.20;99.90;;;;;;5005471;28;20025;-88
2022/01/27 22:14:47;;;;;;;9.75;1.40;;;6.10;99.90;;;;;;5030562;28;20021;-88
2022/01/27 22:17:13;;;;;;;5.47;1.10;;;6.10;99.90;;;;;;5047357;28;20037;-88
2022/01/27 22:19:39;;;;;;;6.82;1.27;;;6.00;99.90;;;;;;5028471;28;20033;-88
2022/01/27 22:22:06;;;;;;;8.15;1.42;;;5.90;99.90;;;;;;5019031;28;20017;-89
2022/01/27 22:24:31;;;;;;;6.78;1.40;;;5.90;99.90;;;;;;5024622;28;20030;-91
2022/01/27 22:26:58;;;;;;;9.18;1.83;;;5.80;99.90;;;;;;5022345;28;20026;-86
2022/01/27 22:29:24;;;;;;;10.77;2.33;;;5.80;99.90;;;;;;5028276;28;20074;-89
2022/01/27 22:31:52;;;;;;;9.52;1.92;;;5.80;99.90;;;;;;5039591;28;20464;-88
2022/01/27 22:34:18;;;;;;;9.30;1.23;;;5.70;99.90;;;;;;5035450;28;20078;-89
2022/01/27 22:36:44;;;;;;;7.82;1.40;;;5.80;99.90;;;;;;5029517;28;20025;-86
2022/01/27 22:39:10;;;;;;;6.60;1.48;;;5.80;99.90;;;;;;5034772;28;20476;-88
2022/01/27 22:41:37;;;;;;;10.15;1.95;;;5.80;99.90;;;;;;5030787;28;20033;-85
2022/01/27 22:44:04;;;;;;;7.45;1.10;;;5.80;99.90;;;;;;5062394;28;20028;-86
2022/01/27 22:46:31;;;;;;;7.22;1.40;;;5.80;99.90;;;;;;5055307;28;20029;-88
2022/01/27 22:48:57;;;;;;;7.65;1.88;;;5.70;99.90;;;;;;5048172;28;20031;-87
2022/01/27 22:51:23;;;;;;;5.35;0.98;;;5.60;99.90;;;;;;5021141;28;20383;-88
2022/01/27 22:53:49;;;;;;;7.75;1.60;;;5.60;99.90;;;;;;5043638;28;20036;-88
2022/01/27 22:56:15;;;;;;;10.50;1.85;;;5.60;99.90;;;;;;5031040;28;20051;-89
2022/01/27 22:58:41;;;;;;;10.40;2.00;;;5.60;99.90;;;;;;5030204;28;20025;-87
2022/01/27 23:01:07;;;;;;;11.30;1.77;;;5.60;99.90;;;;;;5045893;28;20032;-88
2022/01/27 23:03:33;;;;;;;14.85;2.17;;;5.50;99.90;;;;;;5022261;28;20033;-88
2022/01/27 23:05:59;;;;;;;12.23;2.10;;;5.50;99.90;;;;;;5039933;28;20037;-87
2022/01/27 23:08:32;;;;;;;9.40;1.63;;;5.50;99.90;;;;;;5048918;28;20061;-88
2022/01/27 23:11:00;;;;;;;11.10;1.90;;;5.50;99.90;;;;;;5047243;28;20048;-88
2022/01/27 23:13:29;;;;;;;7.80;1.27;;;5.50;99.90;;;;;;5049396;28;20041;-86
2022/01/27 23:18:43;;;;;;;10.90;2.00;;;5.50;99.90;;;;;;5051124;28;20060;-90
2022/01/27 23:23:45;;;;;;;10.48;2.38;;;5.40;99.90;;;;;;5040946;28;20030;-88
2022/01/27 23:28:42;;;;;;;10.88;1.70;;;5.50;99.90;;;;;;5045411;28;20034;-89
2022/01/27 23:33:37;;;;;;;12.10;1.88;;;5.40;99.90;;;;;;5030994;28;20151;-90
2022/01/27 23:36:08;;;;;;;10.18;1.63;;;5.40;99.90;;;;;;5046856;28;20040;-90
2022/01/27 23:41:17;;;;;;;13.30;1.90;;;5.20;99.90;;;;;;5045224;28;20025;-91
2022/01/27 23:48:51;;;;;;;8.68;1.45;;;5.20;99.90;;;;;;5036920;28;20108;-89
2022/01/27 23:56:38;;;;;;;8.55;1.48;;;5.10;99.90;;;;;;5035382;28;20026;-91
2022/01/27 23:59:10;;;;;;;12.13;2.10;;;5.10;99.90;;;;;;5017459;28;20029;-90
